HTN weather

Hotel Tecnoparque Helipad
Azcapotzalco, Distrito Federal, Mexico

Public forecast

Using degrees Celsius for public forecast. Weather courtesy of forecast.io.

METAR (pilot weather report)

Closest report is Licenciado Benito Juarez International Airport, 7.4 nm (13.6 km) SE. Retrieved 2019/06/20 11:54 UTC (29 minutes ago):

MMMX 201154Z 04004KT 7SM BKN200 15/12 A3035 NOSIG RMK SLP097 52011 904 8/002 HZY SC

TAF (pilot weather forecast)

Closest forecast is Licenciado Benito Juarez International Airport, 7.4 nm (13.6 km) SE. Retrieved 2019/06/20 12:08 UTC (15 minutes ago):

TAF MMMX 201000Z 2012/2118 00000KT 6SM HZ BKN200 TX26/2021Z TN15/2012Z FM201800 06010KT P6SM SCT025 BKN200 TEMPO 2022/2102 4SM TSRA BKN020CB FM210400 08005KT 6SM HZ SCT015 BKN080 BKN200 FM210800 00000KT 6SM HZ SCT080 BKN200 FM211800 13010KT P6SM SCT025 SCT200